createdAt,value
2018-07-09T00:01:54.531Z,1.9
2018-07-09T00:04:54.920Z,2.1
2018-07-09T00:07:54.560Z,2
2018-07-09T00:10:54.739Z,2
2018-07-09T00:13:54.480Z,1.9
2018-07-09T00:16:54.390Z,1.8
2018-07-09T00:19:54.630Z,1.8
2018-07-09T00:22:54.651Z,2
2018-07-09T00:25:54.431Z,2.1
2018-07-09T00:28:54.515Z,2.3
2018-07-09T00:31:54.702Z,2.1
2018-07-09T00:34:54.514Z,2.4
2018-07-09T00:37:54.537Z,2
2018-07-09T00:40:54.756Z,1.9
2018-07-09T00:43:54.594Z,1.8
2018-07-09T00:46:54.577Z,1.7
2018-07-09T00:49:54.674Z,1.8
2018-07-09T00:52:54.788Z,1.7
2018-07-09T00:55:54.779Z,2
2018-07-09T00:58:54.671Z,2.1
2018-07-09T01:01:54.612Z,1.9
2018-07-09T01:04:54.561Z,1.8
2018-07-09T01:07:54.734Z,1.8
2018-07-09T01:10:54.483Z,1.7
2018-07-09T01:13:54.671Z,1.8
2018-07-09T01:16:54.492Z,1.7
2018-07-09T01:19:54.695Z,1.8
2018-07-09T01:22:54.624Z,1.7
2018-07-09T01:25:54.452Z,1.7
2018-07-09T01:28:54.656Z,1.7
2018-07-09T01:31:54.733Z,1.6
2018-07-09T01:34:54.538Z,1.7
2018-07-09T01:37:54.444Z,1.8
2018-07-09T01:40:54.511Z,1.9
2018-07-09T01:43:54.626Z,1.7
2018-07-09T01:46:54.755Z,1.7
2018-07-09T01:49:54.828Z,2
2018-07-09T01:52:54.566Z,1.9
2018-07-09T01:55:54.603Z,1.9
2018-07-09T01:58:54.468Z,2.3
2018-07-09T02:01:54.809Z,1.9
2018-07-09T02:04:54.808Z,1.9
2018-07-09T02:07:54.425Z,1.7
2018-07-09T02:10:54.523Z,1.7
2018-07-09T02:13:54.497Z,1.7
2018-07-09T02:16:54.614Z,1.7
2018-07-09T02:19:54.592Z,1.7
2018-07-09T02:22:54.694Z,2
2018-07-09T02:25:54.608Z,1.9
2018-07-09T02:28:54.480Z,1.7
2018-07-09T02:31:54.693Z,1.9
2018-07-09T02:34:54.835Z,1.8
2018-07-09T02:37:54.513Z,1.6
2018-07-09T02:40:54.668Z,1.7
2018-07-09T02:43:54.554Z,1.6
2018-07-09T02:46:54.578Z,1.6
2018-07-09T02:49:54.661Z,1.7
2018-07-09T02:52:54.519Z,1.7
2018-07-09T02:55:54.589Z,1.6
2018-07-09T02:58:54.619Z,1.9
2018-07-09T03:01:54.488Z,1.7
2018-07-09T03:04:54.771Z,1.6
2018-07-09T03:07:54.761Z,1.8
2018-07-09T03:10:54.451Z,1.7
2018-07-09T03:13:54.663Z,1.6
2018-07-09T03:16:54.661Z,1.7
2018-07-09T03:19:54.599Z,1.6
2018-07-09T03:22:54.822Z,2
2018-07-09T03:25:54.673Z,1.9
2018-07-09T03:28:54.713Z,1.7
2018-07-09T03:31:54.526Z,1.7
2018-07-09T03:35:04.445Z,1.6
2018-07-09T03:37:54.619Z,1.6
2018-07-09T03:40:54.391Z,1.7
2018-07-09T03:43:54.571Z,1.6
2018-07-09T03:46:54.549Z,1.6
2018-07-09T03:49:54.489Z,1.6
2018-07-09T03:52:54.409Z,1.8
2018-07-09T03:55:54.557Z,1.8
2018-07-09T03:58:54.551Z,1.8
2018-07-09T04:01:54.378Z,1.7
2018-07-09T04:04:54.602Z,1.6
2018-07-09T04:07:54.638Z,1.9
2018-07-09T04:10:54.406Z,1.7
2018-07-09T04:13:54.546Z,3.3
2018-07-09T04:16:54.724Z,5
2018-07-09T04:19:54.439Z,5.6
2018-07-09T04:22:54.410Z,6.6
2018-07-09T04:25:54.751Z,6.5
2018-07-09T04:28:54.434Z,5.6
2018-07-09T04:31:54.504Z,5.5
2018-07-09T04:34:54.520Z,5.4
2018-07-09T04:37:55.711Z,5.4
2018-07-09T04:40:54.578Z,4.8
2018-07-09T04:43:54.407Z,4.7
2018-07-09T04:46:54.592Z,5.1
2018-07-09T04:49:54.470Z,5.6
2018-07-09T04:52:54.587Z,5.2
2018-07-09T04:55:54.651Z,5.4
2018-07-09T04:58:54.595Z,5.7
2018-07-09T05:01:54.642Z,6
2018-07-09T05:04:54.512Z,6.6
2018-07-09T05:07:54.559Z,6.5
2018-07-09T05:10:54.459Z,7
2018-07-09T05:13:54.498Z,6.6
2018-07-09T05:16:54.451Z,6.5
2018-07-09T05:19:54.493Z,6.3
2018-07-09T05:22:54.615Z,5.9
2018-07-09T05:25:54.747Z,5.3
2018-07-09T05:28:54.453Z,5.2
2018-07-09T05:31:54.826Z,4.7
2018-07-09T05:34:54.480Z,4.9
2018-07-09T05:37:54.736Z,4.3
2018-07-09T05:40:54.611Z,3.6
2018-07-09T05:43:54.662Z,3.5
2018-07-09T05:46:54.863Z,3.6
2018-07-09T05:49:54.359Z,3.7
2018-07-09T05:52:54.603Z,3.5
2018-07-09T05:55:54.709Z,3.6
2018-07-09T05:58:55.126Z,3.6
2018-07-09T06:01:54.722Z,3.8
2018-07-09T06:04:54.462Z,3.2
2018-07-09T06:07:54.389Z,3.3
2018-07-09T06:10:54.620Z,3
2018-07-09T06:13:54.648Z,3.3
2018-07-09T06:16:54.563Z,3.2
2018-07-09T06:19:54.538Z,3.1
2018-07-09T06:22:54.491Z,3
2018-07-09T06:25:54.537Z,2.9
2018-07-09T06:28:54.511Z,2.9
2018-07-09T06:31:54.469Z,3.1
2018-07-09T06:34:54.622Z,3.3
2018-07-09T06:37:54.492Z,3.1
2018-07-09T06:40:54.481Z,3.3
2018-07-09T06:43:54.462Z,3.3
2018-07-09T06:46:54.759Z,3.7
2018-07-09T06:49:55.047Z,3.3
2018-07-09T06:52:54.462Z,3
2018-07-09T06:55:55.248Z,2.8
2018-07-09T06:58:54.578Z,2.9
2018-07-09T07:01:54.829Z,2.7
2018-07-09T07:04:54.771Z,2.7
2018-07-09T07:07:54.629Z,2.9
2018-07-09T07:10:54.635Z,2.8
2018-07-09T07:13:54.690Z,2.7
2018-07-09T07:16:54.493Z,2.4
2018-07-09T07:19:54.736Z,2.5
2018-07-09T07:22:54.398Z,2.5
2018-07-09T07:25:54.652Z,2.7
2018-07-09T07:28:54.556Z,2.7
2018-07-09T07:31:54.511Z,2.6
2018-07-09T07:34:54.535Z,2.6
2018-07-09T07:37:54.562Z,2.4
2018-07-09T07:40:54.422Z,2.4
2018-07-09T07:43:54.602Z,2.4
2018-07-09T07:46:54.621Z,2.2
2018-07-09T07:49:54.623Z,2.2
2018-07-09T07:52:54.485Z,2.1
2018-07-09T07:55:55.439Z,2.1
2018-07-09T07:58:54.552Z,2.2
2018-07-09T08:01:54.355Z,2.9
2018-07-09T08:04:54.412Z,2.7
2018-07-09T08:07:54.472Z,2.5
2018-07-09T08:10:54.481Z,2.6
2018-07-09T08:13:54.574Z,2.5
2018-07-09T08:16:54.578Z,2.3
2018-07-09T08:19:54.483Z,2.3
2018-07-09T08:22:54.613Z,2.5
2018-07-09T08:25:54.489Z,2.4
2018-07-09T08:28:54.466Z,2.2
2018-07-09T08:31:54.407Z,2.3
2018-07-09T08:34:54.559Z,2.3
2018-07-09T08:37:55.145Z,2.3
2018-07-09T08:40:54.362Z,2.3
2018-07-09T08:43:54.533Z,2.1
2018-07-09T08:46:54.577Z,2.1
2018-07-09T08:49:54.424Z,2.2
2018-07-09T08:52:54.357Z,2.2
2018-07-09T08:55:54.536Z,2.7
2018-07-09T08:58:54.434Z,2.9
2018-07-09T09:01:54.510Z,3.3
2018-07-09T09:04:54.562Z,3
2018-07-09T09:07:54.588Z,3.2
2018-07-09T09:10:54.783Z,3
2018-07-09T09:13:54.456Z,2.7
2018-07-09T09:16:54.751Z,2.9
2018-07-09T09:19:54.407Z,2.6
2018-07-09T09:22:54.861Z,2.6
2018-07-09T09:25:54.592Z,2.4
2018-07-09T09:28:54.439Z,2.4
2018-07-09T09:31:54.532Z,2.4
2018-07-09T09:34:54.454Z,2.8
2018-07-09T09:37:54.397Z,3.6
2018-07-09T09:40:54.800Z,3.1
2018-07-09T09:43:54.642Z,3.1
2018-07-09T09:46:54.419Z,2.7
2018-07-09T09:49:54.586Z,2.4
2018-07-09T09:52:54.608Z,3.5
2018-07-09T09:55:54.509Z,3.1
2018-07-09T09:58:54.629Z,3.3
2018-07-09T10:01:54.339Z,3.3
2018-07-09T10:04:54.453Z,3.5
2018-07-09T10:07:54.583Z,3.4
2018-07-09T10:10:54.421Z,3.4
2018-07-09T10:13:54.523Z,3
2018-07-09T10:16:55.363Z,2.9
2018-07-09T10:19:54.436Z,3.1
2018-07-09T10:22:55.738Z,2.8
2018-07-09T10:25:54.349Z,3.5
2018-07-09T10:28:54.529Z,3.5
2018-07-09T10:31:54.395Z,3.5
2018-07-09T10:34:54.464Z,2.9
2018-07-09T10:37:54.660Z,3.5
2018-07-09T10:40:54.526Z,3.8
2018-07-09T10:43:54.736Z,2.9
2018-07-09T10:46:54.622Z,3.5
2018-07-09T10:49:54.548Z,3.5
2018-07-09T10:52:54.515Z,3.9
2018-07-09T10:55:54.331Z,3.8
2018-07-09T10:58:54.541Z,4.8
2018-07-09T11:01:54.585Z,4.2
2018-07-09T11:04:54.433Z,3.2
2018-07-09T11:07:54.384Z,3.7
2018-07-09T11:10:54.339Z,3.3
2018-07-09T11:13:54.431Z,2.9
2018-07-09T11:16:59.852Z,2.8
2018-07-09T11:19:54.401Z,2.8
2018-07-09T11:22:54.494Z,2.5
2018-07-09T11:25:54.404Z,2.3
2018-07-09T11:28:54.655Z,2.3
2018-07-09T11:31:54.381Z,2.3
2018-07-09T11:34:54.435Z,2.8
2018-07-09T11:37:54.365Z,2.7
2018-07-09T11:40:54.484Z,2.6
2018-07-09T11:43:54.751Z,2.9
2018-07-09T11:46:54.339Z,2.4
2018-07-09T11:49:54.430Z,2.4
2018-07-09T11:52:54.497Z,2.2
2018-07-09T11:55:54.454Z,2.2
2018-07-09T11:58:55.209Z,2.2
2018-07-09T12:01:54.870Z,2.2
2018-07-09T12:04:55.529Z,2.1
2018-07-09T12:07:54.569Z,2.2
2018-07-09T12:10:54.397Z,2.1
2018-07-09T12:13:54.561Z,2
2018-07-09T12:16:54.554Z,2
2018-07-09T12:19:54.371Z,2.3
2018-07-09T12:22:54.620Z,2.1
2018-07-09T12:25:54.557Z,2.1
2018-07-09T12:28:55.280Z,2
2018-07-09T12:31:54.331Z,2
2018-07-09T12:34:54.367Z,2
2018-07-09T12:37:54.509Z,2.2
2018-07-09T12:40:54.531Z,2.2
2018-07-09T12:43:55.395Z,2.3
2018-07-09T12:46:54.570Z,2.1
2018-07-09T12:49:54.558Z,2.5
2018-07-09T12:52:54.458Z,2.3
2018-07-09T12:55:54.453Z,2.2
2018-07-09T12:58:54.342Z,2
2018-07-09T13:01:54.373Z,1.9
2018-07-09T13:04:54.724Z,1.9
2018-07-09T13:07:54.497Z,1.8
2018-07-09T13:10:54.569Z,3.1
2018-07-09T13:13:54.520Z,3.6
2018-07-09T13:16:54.345Z,3.4
2018-07-09T13:19:55.201Z,3.6
2018-07-09T13:22:54.544Z,4.9
2018-07-09T13:25:54.383Z,4.9
2018-07-09T13:28:54.476Z,4.5
2018-07-09T13:31:54.503Z,3.9
2018-07-09T13:34:54.414Z,4
2018-07-09T13:37:55.000Z,3.3
2018-07-09T13:40:54.363Z,3
2018-07-09T13:43:54.332Z,2.8
2018-07-09T13:46:54.335Z,2.4
2018-07-09T13:49:54.331Z,2.6
2018-07-09T13:52:54.464Z,2.3
2018-07-09T13:55:54.516Z,2.5
2018-07-09T13:58:54.415Z,2.5
2018-07-09T14:01:54.438Z,2.2
2018-07-09T14:04:54.571Z,2.1
2018-07-09T14:07:54.411Z,2.1
2018-07-09T14:10:54.412Z,2.1
2018-07-09T14:13:54.589Z,2.5
2018-07-09T14:16:54.407Z,2.5
2018-07-09T14:19:54.523Z,2.3
2018-07-09T14:22:54.577Z,2.4
2018-07-09T14:25:54.327Z,2.2
2018-07-09T14:28:54.470Z,2.3
2018-07-09T14:31:54.626Z,3
2018-07-09T14:34:54.383Z,2.5
2018-07-09T14:37:54.548Z,2.4
2018-07-09T14:40:54.446Z,2.2
2018-07-09T14:43:54.344Z,2
2018-07-09T14:46:54.762Z,2.1
2018-07-09T14:49:54.734Z,2.1
2018-07-09T14:52:54.398Z,2
2018-07-09T14:55:54.529Z,2.1
2018-07-09T14:58:54.570Z,2.6
2018-07-09T15:01:54.343Z,2.4
2018-07-09T15:04:54.367Z,2.8
2018-07-09T15:07:54.424Z,2.3
2018-07-09T15:10:54.296Z,2.1
2018-07-09T15:13:54.417Z,2
2018-07-09T15:16:54.607Z,2
2018-07-09T15:19:54.285Z,2
2018-07-09T15:22:54.433Z,2
2018-07-09T15:25:54.525Z,2
2018-07-09T15:28:54.330Z,2.2
2018-07-09T15:31:54.286Z,2.1
2018-07-09T15:34:54.579Z,2.5
2018-07-09T15:37:54.307Z,2.2
2018-07-09T15:40:54.471Z,2.1
2018-07-09T15:43:54.276Z,2.3
2018-07-09T15:46:54.351Z,2.1
2018-07-09T15:49:54.604Z,2
2018-07-09T15:52:54.411Z,2.1
2018-07-09T15:55:54.357Z,2.1
2018-07-09T15:58:54.468Z,2
2018-07-09T16:01:54.389Z,2
2018-07-09T16:04:54.347Z,1.9
2018-07-09T16:07:54.408Z,1.9
2018-07-09T16:10:54.421Z,1.9
2018-07-09T16:13:54.194Z,1.8
2018-07-09T16:16:54.231Z,1.9
2018-07-09T16:19:54.662Z,2.3
2018-07-09T16:22:54.231Z,3.1
2018-07-09T16:25:54.481Z,4.2
2018-07-09T16:28:55.140Z,3.9
2018-07-09T16:31:54.329Z,3.6
2018-07-09T16:34:54.357Z,3.1
2018-07-09T16:37:54.404Z,3.2
2018-07-09T16:40:54.230Z,4.1
2018-07-09T16:43:54.385Z,5.4
2018-07-09T16:46:54.836Z,8.4
2018-07-09T16:49:54.229Z,10.1
2018-07-09T16:52:54.261Z,9.8
2018-07-09T16:55:54.433Z,7.5
2018-07-09T16:58:54.173Z,6.1
2018-07-09T17:01:54.508Z,6.2
2018-07-09T17:04:54.543Z,5.7
2018-07-09T17:07:54.207Z,6.7
2018-07-09T17:10:54.335Z,6.3
2018-07-09T17:13:54.299Z,5.8
2018-07-09T17:16:54.553Z,5.3
2018-07-09T17:19:54.343Z,4.9
2018-07-09T17:22:54.370Z,4.6
2018-07-09T17:25:54.609Z,5
2018-07-09T17:28:54.350Z,4.4
2018-07-09T17:31:54.499Z,4.1
2018-07-09T17:34:55.129Z,4.2
2018-07-09T17:37:54.362Z,4.1
2018-07-09T17:40:54.234Z,3.3
2018-07-09T17:43:55.046Z,3.1
2018-07-09T17:46:54.290Z,3
2018-07-09T17:49:55.533Z,3.7
2018-07-09T17:52:54.551Z,4
2018-07-09T17:55:54.436Z,3.2
2018-07-09T17:58:54.515Z,3.2
2018-07-09T18:01:56.622Z,3.3
2018-07-09T18:04:54.546Z,2.7
2018-07-09T18:07:57.421Z,3.4
2018-07-09T18:10:54.514Z,5
2018-07-09T18:13:57.655Z,7.4
2018-07-09T18:16:54.588Z,6.8
2018-07-09T18:19:54.595Z,6.7
2018-07-09T18:22:54.501Z,5.5
2018-07-09T18:25:54.687Z,4.9
2018-07-09T18:28:54.486Z,4.1
2018-07-09T18:31:57.003Z,3.9
2018-07-09T18:34:54.478Z,4.4
2018-07-09T18:37:54.668Z,5
2018-07-09T18:40:54.582Z,4.2
2018-07-09T18:43:54.506Z,4
2018-07-09T18:46:57.244Z,4.1
2018-07-09T18:49:54.943Z,4.2
2018-07-09T18:52:54.900Z,4.6
2018-07-09T18:55:55.044Z,5.4
2018-07-09T18:58:54.764Z,5
2018-07-09T19:01:54.873Z,4.8
2018-07-09T19:04:55.078Z,4.8
2018-07-09T19:07:54.951Z,4.4
2018-07-09T19:10:54.211Z,6.4
2018-07-09T19:13:54.971Z,4.9
2018-07-09T19:16:57.226Z,4.5
2018-07-09T19:19:54.885Z,4.5
2018-07-09T19:22:55.125Z,4.7
2018-07-09T19:25:54.659Z,5.4
2018-07-09T19:28:54.985Z,5.2
2018-07-09T19:31:54.813Z,4
2018-07-09T19:34:54.877Z,3.2
2018-07-09T19:37:59.119Z,3.1
2018-07-09T19:40:54.679Z,4.2
2018-07-09T19:43:55.018Z,5.1
2018-07-09T19:46:54.524Z,6.7
2018-07-09T19:49:54.302Z,5.3
2018-07-09T19:52:54.227Z,4.9
2018-07-09T19:55:54.190Z,4.3
2018-07-09T19:58:54.346Z,3.9
2018-07-09T20:01:54.207Z,4.2
2018-07-09T20:04:54.634Z,3.3
2018-07-09T20:07:54.268Z,3.6
2018-07-09T20:10:54.475Z,3.6
2018-07-09T20:13:54.132Z,3.1
2018-07-09T20:16:54.360Z,3.1
2018-07-09T20:19:54.269Z,3.8
2018-07-09T20:22:54.162Z,4.1
2018-07-09T20:25:54.596Z,3.6
2018-07-09T20:28:54.279Z,3.3
2018-07-09T20:31:54.157Z,3.2
2018-07-09T20:34:54.221Z,2.8
2018-07-09T20:37:54.341Z,3
2018-07-09T20:40:54.159Z,3.3
2018-07-09T20:43:54.233Z,3.7
2018-07-09T20:46:54.354Z,3.7
2018-07-09T20:49:54.196Z,3.3
2018-07-09T20:52:54.523Z,2.7
2018-07-09T20:55:54.293Z,2.8
2018-07-09T20:58:54.224Z,2.7
2018-07-09T21:01:54.274Z,2.3
2018-07-09T21:04:55.303Z,2.8
2018-07-09T21:07:54.127Z,3.3
2018-07-09T21:10:54.332Z,3.2
2018-07-09T21:13:54.254Z,2.8
2018-07-09T21:16:54.170Z,2.7
2018-07-09T21:19:54.200Z,2.5
2018-07-09T21:22:54.442Z,2.4
2018-07-09T21:25:54.270Z,2.5
2018-07-09T21:28:55.644Z,3.1
2018-07-09T21:31:54.247Z,3.1
2018-07-09T21:34:54.384Z,3.5
2018-07-09T21:37:56.628Z,3
2018-07-09T21:40:54.183Z,3.8
2018-07-09T21:43:54.366Z,2.8
2018-07-09T21:46:54.390Z,2.4
2018-07-09T21:49:54.277Z,2.7
2018-07-09T21:52:54.489Z,2.9
2018-07-09T21:55:54.227Z,2.5
2018-07-09T21:58:54.276Z,2.7
2018-07-09T22:01:54.380Z,2.8
2018-07-09T22:04:54.460Z,3.5
2018-07-09T22:07:54.221Z,3.5
2018-07-09T22:10:54.233Z,3
2018-07-09T22:13:54.530Z,2.6
2018-07-09T22:16:54.357Z,3.4
2018-07-09T22:19:54.217Z,2.9
2018-07-09T22:22:54.218Z,2.3
2018-07-09T22:25:54.093Z,2.3
2018-07-09T22:28:54.092Z,2.1
2018-07-09T22:31:54.198Z,2
2018-07-09T22:34:54.233Z,2.1
2018-07-09T22:37:54.261Z,2.1
2018-07-09T22:40:54.314Z,2.3
2018-07-09T22:43:54.087Z,2.5
2018-07-09T22:46:54.289Z,2.4
2018-07-09T22:49:54.511Z,2.2
2018-07-09T22:52:54.197Z,2.1
2018-07-09T22:55:54.483Z,2.7
2018-07-09T22:58:54.396Z,2.3
2018-07-09T23:01:54.362Z,2.2
2018-07-09T23:04:54.179Z,2.3
2018-07-09T23:07:54.384Z,2.3
2018-07-09T23:10:54.166Z,2.6
2018-07-09T23:13:54.254Z,2.3
2018-07-09T23:16:54.299Z,2.1
2018-07-09T23:19:54.411Z,2.2
2018-07-09T23:22:54.474Z,2.1
2018-07-09T23:25:54.399Z,1.9
2018-07-09T23:28:54.113Z,2.1
2018-07-09T23:31:54.322Z,2.4
2018-07-09T23:34:54.202Z,2.4
2018-07-09T23:37:54.138Z,2.2
2018-07-09T23:40:54.186Z,2.2
2018-07-09T23:43:54.241Z,2.3
2018-07-09T23:46:54.209Z,2.1
2018-07-09T23:49:54.333Z,2.2
2018-07-09T23:52:54.436Z,2.3
2018-07-09T23:55:54.287Z,2.1
2018-07-09T23:58:54.248Z,2.4
